createdAt,value
2018-11-21T00:00:57.017Z,41.42
2018-11-21T00:03:22.997Z,40.92
2018-11-21T00:05:48.979Z,41.01
2018-11-21T00:08:15.005Z,40.89
2018-11-21T00:10:41.007Z,41.07
2018-11-21T00:13:07.007Z,40.91
2018-11-21T00:15:33.012Z,40.88
2018-11-21T00:17:58.993Z,40.87
2018-11-21T00:20:24.999Z,40.86
2018-11-21T00:22:50.982Z,40.89
2018-11-21T00:25:16.966Z,40.83
2018-11-21T00:27:42.955Z,40.70
2018-11-21T00:30:08.934Z,40.95
2018-11-21T00:32:34.956Z,40.69
2018-11-21T00:35:00.968Z,40.72
2018-11-21T00:37:26.989Z,40.76
2018-11-21T00:39:52.973Z,40.75
2018-11-21T00:42:18.964Z,40.68
2018-11-21T00:44:44.941Z,40.75
2018-11-21T00:47:10.951Z,40.56
2018-11-21T00:49:36.935Z,40.68
2018-11-21T00:52:02.944Z,40.87
2018-11-21T00:54:28.925Z,40.81
2018-11-21T00:56:54.929Z,40.57
2018-11-21T00:59:20.921Z,40.53
2018-11-21T01:01:46.924Z,40.72
2018-11-21T01:04:12.907Z,40.46
2018-11-21T01:06:38.892Z,40.53
2018-11-21T01:09:04.892Z,40.35
2018-11-21T01:11:30.874Z,40.53
2018-11-21T01:13:56.876Z,40.62
2018-11-21T01:16:22.884Z,40.66
2018-11-21T01:18:48.867Z,40.34
2018-11-21T01:21:14.871Z,40.36
2018-11-21T01:23:40.881Z,40.65
2018-11-21T01:26:06.864Z,40.39
2018-11-21T01:28:32.842Z,40.32
2018-11-21T01:30:58.824Z,40.31
2018-11-21T01:33:24.834Z,40.59
2018-11-21T01:35:50.808Z,40.43
2018-11-21T01:38:16.816Z,40.48
2018-11-21T01:40:42.820Z,40.17
2018-11-21T01:43:08.803Z,40.26
2018-11-21T01:45:34.785Z,40.19
2018-11-21T01:48:00.791Z,40.46
2018-11-21T01:50:26.799Z,40.27
2018-11-21T01:52:52.807Z,40.08
2018-11-21T01:55:18.807Z,40.15
2018-11-21T01:57:44.790Z,40.20
2018-11-21T02:00:10.805Z,40.21
2018-11-21T02:02:36.788Z,40.14
2018-11-21T02:05:02.805Z,40.16
2018-11-21T02:07:28.788Z,40.17
2018-11-21T02:09:54.792Z,40.12
2018-11-21T02:12:20.835Z,40.07
2018-11-21T02:14:46.821Z,40.17
2018-11-21T02:19:38.822Z,40.31
2018-11-21T02:22:04.831Z,40.12
2018-11-21T02:24:30.814Z,40.25
2018-11-21T02:26:56.802Z,40.38
2018-11-21T02:29:22.786Z,40.25
2018-11-21T02:31:48.788Z,40.22
2018-11-21T02:34:14.813Z,40.22
2018-11-21T02:36:40.831Z,40.10
2018-11-21T02:39:06.811Z,40.19
2018-11-21T02:41:32.785Z,40.09
2018-11-21T02:43:58.766Z,40.07
2018-11-21T02:46:24.779Z,40.60
2018-11-21T02:48:50.750Z,40.24
2018-11-21T02:51:16.734Z,40.28
2018-11-21T02:53:42.717Z,40.42
2018-11-21T02:56:08.697Z,40.11
2018-11-21T02:58:34.710Z,40.17
2018-11-21T03:01:00.702Z,40.11
2018-11-21T03:03:26.712Z,39.95
2018-11-21T03:05:52.725Z,40.24
2018-11-21T03:08:18.727Z,40.00
2018-11-21T03:10:44.739Z,40.09
2018-11-21T03:13:10.733Z,40.43
2018-11-21T03:15:36.740Z,40.31
2018-11-21T03:18:02.742Z,40.19
2018-11-21T03:20:28.748Z,40.30
2018-11-21T03:22:54.737Z,40.43
2018-11-21T03:25:20.715Z,40.32
2018-11-21T03:27:46.725Z,40.43
2018-11-21T03:30:12.747Z,40.44
2018-11-21T03:32:38.739Z,40.44
2018-11-21T03:35:04.718Z,40.46
2018-11-21T03:37:30.706Z,40.64
2018-11-21T03:39:56.685Z,40.54
2018-11-21T03:42:22.667Z,40.58
2018-11-21T03:44:48.683Z,40.65
2018-11-21T03:47:14.662Z,40.63
2018-11-21T03:49:40.663Z,40.56
2018-11-21T03:52:06.684Z,40.67
2018-11-21T03:54:32.658Z,40.66
2018-11-21T03:56:58.641Z,40.82
2018-11-21T03:59:24.646Z,40.70
2018-11-21T04:01:50.631Z,40.72
2018-11-21T04:04:16.687Z,40.69
2018-11-21T04:06:42.676Z,40.71
2018-11-21T04:09:08.684Z,40.80
2018-11-21T04:11:34.690Z,40.78
2018-11-21T04:14:00.740Z,40.73
2018-11-21T04:16:26.712Z,40.83
2018-11-21T04:18:52.703Z,40.78
2018-11-21T04:21:18.720Z,40.90
2018-11-21T04:23:44.728Z,40.77
2018-11-21T04:26:10.732Z,40.82
2018-11-21T04:28:36.772Z,40.81
2018-11-21T04:31:02.773Z,40.79
2018-11-21T04:33:28.750Z,40.90
2018-11-21T04:35:54.738Z,40.86
2018-11-21T04:38:20.717Z,40.87
2018-11-21T04:40:46.732Z,40.91
2018-11-21T04:43:12.712Z,41.06
2018-11-21T04:45:38.698Z,40.90
2018-11-21T04:48:04.702Z,40.90
2018-11-21T04:50:30.687Z,40.87
2018-11-21T04:52:56.671Z,40.90
2018-11-21T04:55:22.691Z,40.97
2018-11-21T04:57:48.670Z,40.88
2018-11-21T05:00:14.680Z,40.86
2018-11-21T05:02:40.685Z,40.88
2018-11-21T05:05:06.678Z,40.92
2018-11-21T05:07:32.679Z,40.89
2018-11-21T05:09:58.670Z,40.96
2018-11-21T05:12:24.679Z,40.88
2018-11-21T05:14:50.685Z,40.92
2018-11-21T05:17:16.705Z,40.97
2018-11-21T05:19:42.709Z,40.91
2018-11-21T05:22:08.730Z,40.98
2018-11-21T05:24:34.800Z,40.97
2018-11-21T05:27:00.778Z,40.96
2018-11-21T05:29:26.761Z,41.07
2018-11-21T05:31:52.747Z,40.98
2018-11-21T05:34:18.760Z,41.14
2018-11-21T05:36:44.789Z,41.28
2018-11-21T05:39:10.770Z,41.35
2018-11-21T05:41:36.779Z,41.28
2018-11-21T05:44:02.785Z,41.47
2018-11-21T05:46:28.798Z,41.48
2018-11-21T05:48:54.791Z,41.57
2018-11-21T05:51:20.813Z,41.51
2018-11-21T05:53:46.805Z,41.49
2018-11-21T05:56:12.861Z,41.61
2018-11-21T05:58:38.886Z,41.52
2018-11-21T06:01:04.884Z,41.50
2018-11-21T06:03:30.878Z,41.65
2018-11-21T06:05:56.938Z,41.59
2018-11-21T06:08:22.914Z,41.66
2018-11-21T06:10:49.154Z,41.95
2018-11-21T06:13:15.162Z,42.04
2018-11-21T06:15:41.182Z,42.31
2018-11-21T06:18:07.167Z,42.56
2018-11-21T06:20:33.146Z,43.02
2018-11-21T06:22:59.132Z,43.79
2018-11-21T06:25:25.124Z,43.95
2018-11-21T06:27:51.124Z,44.22
2018-11-21T06:30:17.165Z,44.56
2018-11-21T06:32:43.122Z,44.46
2018-11-21T06:35:09.107Z,44.67
2018-11-21T06:37:35.144Z,44.13
2018-11-21T06:40:01.144Z,44.45
2018-11-21T06:42:27.131Z,44.38
2018-11-21T06:44:53.150Z,44.41
2018-11-21T06:47:19.176Z,44.60
2018-11-21T06:49:45.172Z,44.65
2018-11-21T06:52:11.225Z,44.65
2018-11-21T06:54:37.231Z,44.59
2018-11-21T06:57:03.233Z,44.68
2018-11-21T06:59:29.213Z,44.67
2018-11-21T07:01:55.224Z,44.79
2018-11-21T07:04:21.205Z,44.76
2018-11-21T07:06:47.211Z,44.65
2018-11-21T07:09:13.212Z,44.80
2018-11-21T07:11:39.199Z,44.79
2018-11-21T07:14:07.323Z,45.00
2018-11-21T07:16:31.205Z,45.07
2018-11-21T07:18:59.233Z,44.96
2018-11-21T07:21:25.222Z,45.09
2018-11-21T07:23:51.207Z,45.33
2018-11-21T07:26:17.223Z,45.06
2018-11-21T07:28:43.285Z,45.12
2018-11-21T07:31:09.749Z,45.19
2018-11-21T07:33:35.732Z,45.50
2018-11-21T07:36:02.469Z,45.25
2018-11-21T07:38:28.475Z,45.72
2018-11-21T07:40:54.505Z,45.43
2018-11-21T07:43:20.549Z,45.92
2018-11-21T07:45:46.551Z,45.39
2018-11-21T07:48:12.540Z,45.65
2018-11-21T07:50:38.525Z,45.75
2018-11-21T07:53:04.596Z,45.71
2018-11-21T07:55:30.600Z,45.29
2018-11-21T07:57:56.583Z,45.18
2018-11-21T08:00:22.626Z,45.11
2018-11-21T08:02:48.607Z,45.22
2018-11-21T08:05:14.617Z,45.49
2018-11-21T08:07:40.641Z,45.97
2018-11-21T08:10:06.670Z,45.70
2018-11-21T08:12:32.684Z,45.48
2018-11-21T08:14:58.687Z,45.29
2018-11-21T08:17:24.670Z,45.08
2018-11-21T08:19:50.679Z,44.92
2018-11-21T08:22:16.694Z,45.10
2018-11-21T08:24:42.705Z,45.39
2018-11-21T08:27:08.688Z,45.42
2018-11-21T08:29:34.976Z,45.77
2018-11-21T08:32:01.012Z,45.29
2018-11-21T08:34:27.014Z,46.16
2018-11-21T08:36:52.998Z,45.31
2018-11-21T08:39:19.054Z,45.20
2018-11-21T08:41:45.059Z,45.09
2018-11-21T08:44:11.078Z,44.91
2018-11-21T08:46:37.079Z,44.62
2018-11-21T08:49:03.101Z,44.78
2018-11-21T08:51:29.121Z,44.92
2018-11-21T08:53:55.232Z,45.32
2018-11-21T08:56:21.242Z,45.71
2018-11-21T08:58:47.243Z,45.99
2018-11-21T09:01:13.250Z,45.88
2018-11-21T09:03:39.247Z,45.60
2018-11-21T09:06:05.308Z,45.88
2018-11-21T09:08:31.283Z,45.95
2018-11-21T09:10:57.283Z,45.87
2018-11-21T09:13:23.287Z,45.87
2018-11-21T09:15:49.270Z,45.90
2018-11-21T09:18:15.253Z,45.81
2018-11-21T09:20:41.240Z,45.94
2018-11-21T09:23:07.358Z,45.81
2018-11-21T09:25:33.384Z,46.26
2018-11-21T09:27:59.390Z,46.26
2018-11-21T09:30:25.372Z,46.12
2018-11-21T09:32:51.375Z,46.07
2018-11-21T09:35:17.579Z,46.32
2018-11-21T09:37:43.564Z,46.09
2018-11-21T09:40:09.553Z,46.00
2018-11-21T09:42:35.556Z,46.10
2018-11-21T09:45:01.591Z,46.14
2018-11-21T09:47:27.594Z,45.86
2018-11-21T09:49:53.599Z,45.99
2018-11-21T09:52:19.603Z,46.08
2018-11-21T09:54:45.602Z,45.97
2018-11-21T09:57:11.634Z,45.91
2018-11-21T09:59:37.640Z,45.90
2018-11-21T10:02:03.660Z,45.95
2018-11-21T10:04:29.668Z,45.85
2018-11-21T10:06:55.688Z,45.74
2018-11-21T10:09:21.717Z,45.76
2018-11-21T10:11:47.727Z,45.67
2018-11-21T10:14:13.714Z,45.53
2018-11-21T10:16:39.755Z,45.51
2018-11-21T10:19:05.763Z,45.43
2018-11-21T10:21:31.795Z,45.35
2018-11-21T10:23:57.802Z,45.31
2018-11-21T10:26:23.790Z,45.26
2018-11-21T10:28:49.807Z,45.24
2018-11-21T10:31:15.777Z,45.21
2018-11-21T10:33:41.767Z,45.20
2018-11-21T10:36:07.755Z,45.15
2018-11-21T10:38:33.744Z,45.17
2018-11-21T10:40:59.793Z,45.13
2018-11-21T10:43:28.341Z,45.10
2018-11-21T10:45:51.900Z,45.09
2018-11-21T10:48:17.872Z,45.06
2018-11-21T10:50:43.908Z,45.01
2018-11-21T10:53:09.885Z,44.99
2018-11-21T10:55:35.867Z,44.99
2018-11-21T10:58:01.876Z,44.99
2018-11-21T11:00:27.991Z,44.97
2018-11-21T11:02:54.008Z,44.89
2018-11-21T11:05:19.990Z,44.84
2018-11-21T11:07:46.002Z,44.82
2018-11-21T11:10:12.003Z,44.76
2018-11-21T11:12:38.027Z,44.77
2018-11-21T11:15:04.055Z,44.75
2018-11-21T11:17:30.055Z,44.75
2018-11-21T11:19:56.057Z,44.76
2018-11-21T11:22:22.069Z,44.81
2018-11-21T11:24:48.076Z,44.80
2018-11-21T11:27:14.062Z,44.83
2018-11-21T11:29:40.038Z,44.82
2018-11-21T11:32:06.017Z,44.81
2018-11-21T11:34:32.000Z,44.81
2018-11-21T11:36:57.991Z,44.83
2018-11-21T11:39:23.996Z,44.80
2018-11-21T11:41:50.030Z,44.80
2018-11-21T11:44:16.005Z,44.77
2018-11-21T11:46:42.045Z,44.77
2018-11-21T11:49:08.054Z,44.75
2018-11-21T11:51:34.056Z,44.75
2018-11-21T11:54:00.046Z,44.74
2018-11-21T11:56:26.037Z,44.73
2018-11-21T11:58:52.109Z,44.73
2018-11-21T12:01:18.090Z,44.69
2018-11-21T12:03:44.083Z,44.66
2018-11-21T12:06:10.092Z,44.62
2018-11-21T12:08:36.067Z,44.60
2018-11-21T12:11:02.073Z,44.57
2018-11-21T12:13:28.081Z,44.55
2018-11-21T12:15:54.095Z,44.52
2018-11-21T12:18:20.106Z,44.46
2018-11-21T12:20:46.093Z,44.49
2018-11-21T12:23:12.118Z,44.45
2018-11-21T12:25:38.133Z,44.38
2018-11-21T12:28:04.146Z,44.40
2018-11-21T12:30:30.133Z,44.42
2018-11-21T12:32:56.141Z,44.41
2018-11-21T12:35:22.131Z,44.39
2018-11-21T12:37:48.137Z,44.42
2018-11-21T12:40:14.214Z,44.39
2018-11-21T12:42:40.249Z,44.37
2018-11-21T12:45:06.295Z,44.33
2018-11-21T12:47:32.301Z,44.39
2018-11-21T12:49:58.288Z,44.31
2018-11-21T12:52:24.303Z,44.27
2018-11-21T12:54:50.315Z,44.28
2018-11-21T12:57:16.330Z,44.30
2018-11-21T12:59:42.317Z,44.29
2018-11-21T13:02:08.363Z,44.30
2018-11-21T13:04:34.345Z,44.30
2018-11-21T13:07:00.358Z,44.31
2018-11-21T13:09:26.343Z,44.25
2018-11-21T13:11:52.376Z,44.16
2018-11-21T13:14:18.408Z,44.09
2018-11-21T13:16:44.422Z,44.28
2018-11-21T13:19:10.458Z,44.43
2018-11-21T13:21:36.400Z,44.53
2018-11-21T13:24:02.410Z,44.60
2018-11-21T13:26:28.426Z,44.64
2018-11-21T13:28:54.438Z,44.69
2018-11-21T13:31:20.444Z,44.82
2018-11-21T13:33:46.596Z,45.08
2018-11-21T13:36:12.613Z,45.14
2018-11-21T13:38:38.593Z,45.18
2018-11-21T13:41:04.610Z,45.07
2018-11-21T13:43:30.618Z,45.18
2018-11-21T13:45:56.646Z,45.17
2018-11-21T13:48:22.652Z,45.11
2018-11-21T13:50:48.670Z,45.13
2018-11-21T13:53:14.653Z,45.07
2018-11-21T13:55:40.667Z,45.07
2018-11-21T13:58:06.675Z,45.07
2018-11-21T14:00:32.695Z,45.01
2018-11-21T14:02:58.679Z,45.07
2018-11-21T14:05:24.703Z,45.00
2018-11-21T14:07:50.749Z,45.02
2018-11-21T14:10:16.732Z,44.97
2018-11-21T14:12:42.716Z,45.00
2018-11-21T14:15:08.784Z,44.91
2018-11-21T14:17:34.821Z,44.94
2018-11-21T14:20:00.842Z,45.01
2018-11-21T14:22:26.905Z,44.93
2018-11-21T14:24:52.911Z,44.92
2018-11-21T14:27:18.960Z,44.93
2018-11-21T14:29:44.974Z,44.79
2018-11-21T14:32:10.984Z,44.85
2018-11-21T14:34:37.008Z,44.83
2018-11-21T14:37:03.012Z,44.83
2018-11-21T14:39:29.007Z,44.77
2018-11-21T14:41:55.007Z,44.82
2018-11-21T14:44:20.995Z,44.84
2018-11-21T14:46:47.005Z,44.88
2018-11-21T14:49:13.037Z,44.84
2018-11-21T14:51:39.045Z,44.63
2018-11-21T14:54:05.063Z,44.63
2018-11-21T14:56:31.055Z,44.69
2018-11-21T14:58:57.073Z,44.70
2018-11-21T15:01:23.072Z,44.73
2018-11-21T15:03:49.081Z,44.75
2018-11-21T15:06:15.109Z,44.76
2018-11-21T15:08:41.122Z,44.78
2018-11-21T15:11:07.200Z,44.74
2018-11-21T15:13:33.228Z,44.83
2018-11-21T15:15:59.215Z,44.73
2018-11-21T15:18:25.219Z,44.77
2018-11-21T15:20:51.225Z,44.78
2018-11-21T15:23:17.212Z,44.74
2018-11-21T15:25:43.192Z,44.79
2018-11-21T15:28:09.228Z,44.86
2018-11-21T15:30:35.256Z,44.81
2018-11-21T15:33:01.307Z,44.77
2018-11-21T15:35:27.345Z,44.80
2018-11-21T15:37:53.377Z,44.94
2018-11-21T15:40:19.432Z,44.90
2018-11-21T15:42:45.450Z,44.90
2018-11-21T15:45:11.469Z,44.91
2018-11-21T15:47:37.537Z,44.96
2018-11-21T15:50:03.633Z,44.97
2018-11-21T15:52:29.672Z,44.96
2018-11-21T15:54:55.701Z,45.00
2018-11-21T15:57:21.767Z,45.03
2018-11-21T15:59:47.780Z,45.05
2018-11-21T16:02:13.777Z,45.01
2018-11-21T16:04:39.767Z,45.04
2018-11-21T16:07:05.897Z,45.04
2018-11-21T16:09:31.907Z,45.08
2018-11-21T16:11:57.923Z,45.09
2018-11-21T16:14:23.941Z,45.11
2018-11-21T16:16:49.971Z,45.08
2018-11-21T16:19:15.986Z,45.14
2018-11-21T16:21:44.249Z,45.03
2018-11-21T16:24:10.235Z,45.12
2018-11-21T16:26:36.256Z,45.13
2018-11-21T16:29:02.267Z,45.05
2018-11-21T16:31:28.253Z,45.10
2018-11-21T16:33:54.246Z,45.04
2018-11-21T16:36:27.098Z,44.99
2018-11-21T16:38:46.327Z,44.95
2018-11-21T16:41:12.456Z,44.87
2018-11-21T16:43:38.468Z,45.01
2018-11-21T16:46:04.464Z,45.17
2018-11-21T16:48:30.485Z,45.32
2018-11-21T16:50:56.502Z,45.35
2018-11-21T16:53:22.532Z,45.50
2018-11-21T16:55:48.522Z,45.55
2018-11-21T16:58:14.532Z,45.71
2018-11-21T17:00:40.542Z,45.58
2018-11-21T17:03:06.556Z,45.64
2018-11-21T17:05:32.567Z,45.76
2018-11-21T17:07:58.607Z,45.66
2018-11-21T17:10:24.624Z,45.55
2018-11-21T17:12:50.667Z,45.58
2018-11-21T17:15:16.673Z,45.59
2018-11-21T17:17:42.663Z,45.58
2018-11-21T17:20:08.670Z,45.20
2018-11-21T17:22:34.656Z,45.11
2018-11-21T17:25:00.635Z,44.68
2018-11-21T17:27:26.625Z,45.03
2018-11-21T17:29:53.985Z,44.77
2018-11-21T17:32:18.677Z,44.50
2018-11-21T17:34:44.675Z,44.42
2018-11-21T17:37:10.666Z,44.36
2018-11-21T17:39:36.690Z,44.18
2018-11-21T17:42:02.738Z,44.08
2018-11-21T17:44:28.744Z,43.98
2018-11-21T17:46:54.756Z,44.85
2018-11-21T17:49:20.745Z,43.94
2018-11-21T17:51:46.743Z,44.03
2018-11-21T17:54:12.771Z,43.42
2018-11-21T17:56:38.904Z,42.92
2018-11-21T17:59:04.896Z,42.94
2018-11-21T18:01:30.914Z,42.93
2018-11-21T18:03:56.874Z,42.87
2018-11-21T18:06:22.885Z,42.73
2018-11-21T18:08:48.922Z,43.89
2018-11-21T18:11:14.971Z,44.07
2018-11-21T18:13:40.947Z,44.03
2018-11-21T18:16:06.963Z,43.82
2018-11-21T18:18:32.982Z,43.86
2018-11-21T18:20:59.002Z,43.89
2018-11-21T18:23:25.015Z,44.05
2018-11-21T18:25:51.008Z,44.14
2018-11-21T18:28:17.036Z,44.21
2018-11-21T18:30:43.920Z,44.23
2018-11-21T18:33:10.054Z,44.38
2018-11-21T18:35:36.132Z,44.30
2018-11-21T18:38:02.123Z,44.26
2018-11-21T18:40:28.160Z,44.28
2018-11-21T18:42:54.146Z,44.37
2018-11-21T18:45:20.143Z,44.42
2018-11-21T18:47:46.155Z,44.23
2018-11-21T18:50:12.140Z,44.24
2018-11-21T18:52:38.162Z,44.26
2018-11-21T18:55:04.291Z,44.25
2018-11-21T18:57:30.292Z,44.61
2018-11-21T18:59:56.382Z,44.75
2018-11-21T19:02:22.394Z,44.71
2018-11-21T19:04:48.399Z,44.77
2018-11-21T19:07:14.430Z,44.73
2018-11-21T19:09:40.411Z,44.95
2018-11-21T19:12:06.441Z,45.07
2018-11-21T19:14:32.453Z,45.12
2018-11-21T19:16:58.459Z,45.12
2018-11-21T19:19:24.459Z,45.16
2018-11-21T19:21:50.465Z,45.04
2018-11-21T19:24:16.542Z,45.08
2018-11-21T19:26:42.575Z,45.17
2018-11-21T19:29:08.567Z,45.08
2018-11-21T19:31:34.557Z,45.15
2018-11-21T19:34:00.549Z,45.19
2018-11-21T19:36:26.583Z,45.19
2018-11-21T19:38:52.614Z,45.06
2018-11-21T19:41:18.608Z,44.95
2018-11-21T19:43:44.598Z,44.83
2018-11-21T19:46:10.595Z,44.88
2018-11-21T19:48:36.661Z,44.84
2018-11-21T19:51:02.651Z,44.88
2018-11-21T19:53:28.656Z,44.87
2018-11-21T19:55:54.649Z,44.87
2018-11-21T19:58:20.657Z,44.87
2018-11-21T20:00:46.654Z,44.84
2018-11-21T20:03:12.668Z,44.82
2018-11-21T20:05:38.753Z,44.80
2018-11-21T20:08:04.747Z,44.83
2018-11-21T20:10:30.773Z,45.03
2018-11-21T20:12:56.776Z,44.99
2018-11-21T20:15:22.957Z,45.01
2018-11-21T20:17:48.969Z,45.03
2018-11-21T20:20:14.973Z,45.06
2018-11-21T20:22:40.972Z,44.99
2018-11-21T20:25:06.980Z,44.97
2018-11-21T20:27:32.990Z,44.97
2018-11-21T20:29:59.008Z,44.95
2018-11-21T20:32:25.388Z,45.00
2018-11-21T20:34:51.401Z,45.02
2018-11-21T20:37:17.390Z,44.96
2018-11-21T20:39:46.965Z,44.98
2018-11-21T20:42:09.393Z,44.95
2018-11-21T20:44:35.389Z,44.98
2018-11-21T20:47:01.431Z,45.02
2018-11-21T20:49:27.388Z,44.95
2018-11-21T20:51:53.393Z,44.95
2018-11-21T20:54:19.406Z,44.91
2018-11-21T20:56:45.465Z,44.98
2018-11-21T20:59:11.408Z,44.90
2018-11-21T21:01:37.585Z,44.97
2018-11-21T21:04:03.567Z,44.92
2018-11-21T21:06:29.557Z,44.94
2018-11-21T21:08:55.543Z,45.07
2018-11-21T21:11:21.695Z,45.03
2018-11-21T21:13:47.667Z,44.99
2018-11-21T21:16:13.690Z,45.06
2018-11-21T21:18:39.689Z,45.09
2018-11-21T21:21:05.681Z,45.04
2018-11-21T21:23:31.730Z,45.02
2018-11-21T21:25:57.731Z,44.96
2018-11-21T21:28:23.741Z,44.98
2018-11-21T21:30:49.799Z,45.01
2018-11-21T21:33:15.779Z,44.96
2018-11-21T21:35:41.794Z,45.01
2018-11-21T21:38:07.796Z,44.94
2018-11-21T21:40:33.820Z,44.88
2018-11-21T21:42:59.894Z,44.74
2018-11-21T21:45:26.153Z,44.67
2018-11-21T21:47:52.193Z,44.64
2018-11-21T21:50:18.200Z,44.59
2018-11-21T21:52:44.179Z,44.55
2018-11-21T21:55:10.262Z,44.56
2018-11-21T21:57:36.255Z,44.58
2018-11-21T22:00:02.299Z,44.53
2018-11-21T22:02:28.319Z,44.44
2018-11-21T22:04:54.334Z,44.41
2018-11-21T22:07:20.335Z,44.39
2018-11-21T22:12:12.331Z,44.46
2018-11-21T22:14:38.321Z,44.33
2018-11-21T22:17:05.096Z,44.24
2018-11-21T22:19:31.088Z,44.21
2018-11-21T22:21:57.075Z,44.25
2018-11-21T22:24:23.061Z,44.30
2018-11-21T22:26:49.074Z,44.14
2018-11-21T22:29:15.088Z,44.09
2018-11-21T22:31:41.098Z,44.06
2018-11-21T22:34:07.084Z,44.02
2018-11-21T22:36:33.099Z,43.98
2018-11-21T22:38:59.104Z,43.94
2018-11-21T22:41:25.149Z,43.89
2018-11-21T22:43:51.134Z,43.90
2018-11-21T22:46:17.138Z,43.79
2018-11-21T22:48:43.187Z,43.81
2018-11-21T22:51:09.191Z,43.79
2018-11-21T22:53:35.204Z,43.72
2018-11-21T22:56:01.259Z,43.77
2018-11-21T22:58:27.269Z,43.74
2018-11-21T23:00:53.285Z,43.57
2018-11-21T23:03:19.292Z,43.68
2018-11-21T23:05:45.285Z,43.57
2018-11-21T23:08:11.270Z,43.79
2018-11-21T23:10:37.284Z,44.04
2018-11-21T23:13:03.298Z,44.07
2018-11-21T23:15:29.286Z,44.13
2018-11-21T23:17:55.269Z,43.96
2018-11-21T23:20:21.299Z,44.00
2018-11-21T23:22:47.311Z,43.97
2018-11-21T23:25:13.290Z,43.83
2018-11-21T23:27:39.280Z,43.79
2018-11-21T23:30:05.300Z,43.79
2018-11-21T23:32:31.351Z,43.62
2018-11-21T23:34:57.329Z,43.69
2018-11-21T23:37:23.333Z,43.68
2018-11-21T23:39:49.350Z,43.47
2018-11-21T23:42:15.372Z,43.34
2018-11-21T23:44:41.385Z,43.26
2018-11-21T23:47:07.395Z,43.46
2018-11-21T23:49:33.445Z,43.41
2018-11-21T23:51:59.457Z,43.30
2018-11-21T23:54:25.465Z,43.19
2018-11-21T23:57:15.732Z,43.40
2018-11-21T23:59:17.440Z,43.07
